Date,TemperatureHighF,TemperatureAvgF,TemperatureLowF,DewpointHighF,DewpointAvgF,DewpointLowF,HumidityHigh,HumidityAvg,HumidityLow,PressureMaxIn,PressureMinIn,WindSpeedMaxMPH,WindSpeedAvgMPH,GustSpeedMaxMPH,PrecipitationSumIn
2013-1-1,28,15,5,22,12,2,93,88,73,30.67,30.53,5,2,10,0.01
2013-1-2,28,9,-1,18,5,-4,91,85,67,30.65,30.55,9,2,14,0.01
2013-1-3,30,13,-3,18,7,-6,89,78,57,30.57,30.45,8,2,13,0.01
2013-1-4,43,26,16,30,19,12,94,78,57,30.54,30.32,6,3,11,0.06
2013-1-5,27,22,17,26,18,13,99,86,77,30.34,30.25,6,3,10,0.01
2013-1-6,40,29,22,29,24,19,93,82,60,30.30,30.18,8,3,15,0.00
2013-1-7,44,36,29,38,32,26,96,85,74,30.19,30.09,14,6,25,0.04
2013-1-8,44,38,35,38,34,31,96,87,73,30.19,30.02,12,7,22,0.04
2013-1-9,42,34,22,34,28,19,91,79,66,30.03,29.73,19,6,38,0.02
2013-1-10,31,22,12,24,17,9,92,83,62,30.09,29.87,9,3,19,0.02
2013-1-11,28,16,4,17,10,1,92,80,55,30.36,30.08,10,2,17,0.01
2013-1-12,29,8,-5,12,2,-9,88,78,39,30.53,30.35,7,1,13,0.01
2013-1-13,30,7,-9,10,-1,-13,88,74,37,30.64,30.53,5,1,8,0.01
2013-1-14,39,17,0,23,9,-3,87,74,42,30.68,30.55,6,2,15,0.01
2013-1-15,47,23,8,24,16,5,91,76,36,30.76,30.61,6,1,10,0.00
2013-1-16,51,25,7,24,15,4,91,72,25,30.79,30.63,6,1,9,0.00
2013-1-17,50,27,13,24,17,11,91,71,31,30.65,30.47,7,2,12,0.00
2013-1-18,50,27,14,22,17,11,90,70,29,30.53,30.42,7,3,12,0.00
2013-1-19,51,26,11,23,16,9,100,71,27,30.55,30.42,6,2,11,0.00
2013-1-20,47,23,8,20,14,5,90,70,29,30.56,30.45,6,2,11,0.00
2013-1-21,53,26,10,20,14,7,88,64,20,30.48,30.29,8,4,14,0.00
2013-1-22,53,28,13,22,15,9,85,63,23,30.32,30.12,8,2,15,0.00
2013-1-23,45,38,29,35,26,17,92,64,37,30.12,29.88,13,6,25,0.01
2013-1-24,48,41,35,38,35,33,95,79,60,30.16,30.09,10,5,19,0.03
2013-1-25,40,38,36,39,37,33,96,95,87,30.15,29.90,9,5,17,0.31
2013-1-26,38,32,26,34,26,21,95,80,58,30.04,29.90,9,4,20,0.03
2013-1-27,33,27,20,26,23,18,94,85,64,30.13,30.04,9,4,18,0.00
2013-1-28,32,30,27,29,26,24,94,89,81,30.17,30.06,10,5,21,0.00
2013-1-29,39,34,30,31,30,28,94,83,74,30.42,30.16,13,8,24,0.02
2013-1-30,42,36,30,35,31,27,93,82,73,30.45,30.40,10,4,18,0.01
2013-1-31,53,33,23,33,28,22,96,81,44,30.42,30.32,5,1,8,0.01
2013-2-1,56,31,18,32,24,12,95,80,21,30.45,30.34,5,1,9,0.01
2013-2-2,46,29,16,31,24,14,93,82,54,30.48,30.35,6,1,10,0.00
2013-2-3,55,37,21,28,24,19,94,65,25,30.36,30.19,8,3,17,0.00
2013-2-4,52,40,31,27,24,19,76,55,29,30.19,29.93,7,3,13,0.00
2013-2-5,42,37,30,31,24,17,89,61,41,30.03,29.88,11,6,24,0.00
2013-2-6,44,35,29,27,24,21,86,65,42,30.11,29.90,11,6,22,0.00
2013-2-7,38,31,24,29,22,17,93,72,44,30.06,29.88,7,3,16,0.00
2013-2-8,38,27,17,24,19,14,93,73,41,30.22,30.06,18,4,26,0.01
2013-2-9,45,25,10,29,19,7,92,78,46,30.29,30.20,5,1,10,0.01
2013-2-10,43,30,20,27,22,17,94,75,42,30.33,30.24,12,2,21,0.00
2013-2-11,50,29,13,30,22,11,92,76,38,30.39,30.28,12,2,23,0.00
2013-2-12,47,33,23,33,27,22,95,80,49,30.46,30.39,10,3,18,0.00
2013-2-13,45,36,26,34,29,24,94,80,56,30.46,30.37,9,4,17,0.00
2013-2-14,54,34,21,35,28,19,96,81,45,30.57,30.44,7,1,13,0.01
2013-2-15,57,36,22,35,27,21,95,76,34,30.54,30.28,6,1,13,0.01
2013-2-16,49,34,24,32,26,21,93,74,43,30.31,30.14,12,4,20,0.00
2013-2-17,43,30,20,22,19,10,91,66,25,30.19,30.06,6,2,11,0.00
2013-2-18,38,30,22,22,20,15,88,67,39,30.06,29.75,8,3,17,0.00
2013-2-19,39,28,19,25,21,17,92,76,46,29.95,29.68,10,3,16,0.00
2013-2-20,37,26,14,25,19,12,93,76,52,30.09,29.96,14,3,22,0.00
2013-2-21,32,28,21,26,24,19,93,83,67,30.21,30.08,10,5,20,0.00
2013-2-22,43,32,26,32,28,23,96,84,58,30.22,29.88,18,7,32,0.06
2013-2-23,32,26,17,25,22,14,92,82,66,30.41,30.03,9,4,18,0.02
2013-2-24,43,26,11,31,20,9,92,79,55,30.49,30.19,8,2,14,0.01
2013-2-25,35,31,26,31,24,18,94,75,54,30.32,30.09,14,6,26,0.01
2013-2-26,44,30,18,21,18,13,90,63,32,30.41,30.29,7,3,15,0.01
2013-2-27,44,34,24,32,24,17,79,67,56,30.36,30.29,8,3,14,0.00
2013-2-28,49,41,35,41,36,29,93,84,72,30.45,30.27,14,6,25,0.02
2013-3-1,57,42,30,37,34,27,94,75,39,30.48,30.31,8,3,14,0.01
2013-3-2,51,38,30,36,31,27,92,76,43,30.32,30.11,9,3,18,0.00
2013-3-3,44,35,25,33,21,10,90,62,26,30.18,30.09,11,4,22,0.00
2013-3-4,52,32,16,23,19,14,92,63,29,30.21,29.98,7,2,15,0.00
2013-3-5,44,35,25,34,27,21,87,75,55,29.98,29.63,10,3,24,0.00
2013-3-6,36,32,27,32,28,23,95,86,70,29.95,29.49,15,5,26,0.07
2013-3-7,43,30,17,30,24,15,93,79,49,30.08,29.96,8,2,17,0.01
2013-3-8,43,31,22,31,26,21,94,81,51,30.22,30.00,12,3,21,0.01
2013-3-9,53,32,16,25,20,14,93,67,25,30.52,30.21,11,2,17,0.01
2013-3-10,57,36,19,34,25,17,92,69,28,30.54,30.39,9,3,18,0.00
2013-3-11,53,42,31,39,36,29,94,80,58,30.42,30.20,9,3,18,0.00
2013-3-12,60,43,29,38,29,19,96,66,21,30.24,30.12,10,4,19,0.00
2013-3-13,64,45,31,36,30,27,85,59,27,30.19,30.09,7,2,15,0.00
2013-3-14,62,43,28,35,28,23,90,62,24,30.18,30.06,11,4,22,0.00
2013-3-15,56,42,30,38,31,26,91,68,31,30.19,30.09,8,3,15,0.00
2013-3-16,45,36,30,33,30,27,95,80,54,30.12,29.94,14,7,26,0.00
2013-3-17,36,30,25,27,21,16,83,69,57,30.22,29.99,13,8,29,0.00
2013-3-18,52,35,26,26,20,11,86,60,21,30.25,30.12,9,3,17,0.00
2013-3-19,53,37,26,40,28,20,94,71,36,30.15,29.77,10,3,26,0.10
2013-3-20,42,37,28,39,33,22,93,85,71,30.04,29.60,20,9,36,0.27
2013-3-21,36,29,24,25,22,17,88,75,57,30.25,30.04,14,6,30,0.01
2013-3-22,35,27,20,22,18,13,90,69,41,30.34,30.22,11,4,21,0.05
2013-3-23,46,28,15,21,16,13,92,66,29,30.37,30.24,11,2,15,0.01
2013-3-24,49,34,22,27,23,19,98,66,41,30.28,30.10,10,3,17,0.00
2013-3-25,54,39,28,32,28,24,87,66,42,30.10,29.87,10,4,16,0.00
2013-3-26,50,39,32,38,34,30,95,83,59,29.93,29.88,10,4,14,0.00
2013-3-27,54,39,29,42,35,28,97,85,49,29.97,29.87,9,2,17,0.04
2013-3-28,55,42,33,42,37,32,96,84,49,30.10,29.96,10,1,16,0.10
2013-3-29,61,45,35,42,38,34,97,79,45,30.19,30.10,8,2,14,0.09
2013-3-30,69,47,27,43,35,-100,96,70,32,30.21,30.01,9,3,20,0.00
2013-3-31,63,48,34,45,38,32,93,71,39,30.01,29.84,13,5,22,0.00
2013-4-1,57,47,36,42,39,34,94,76,56,30.07,29.88,8,2,15,0.00
2013-4-2,60,42,29,41,35,28,96,79,48,30.15,30.07,8,2,16,0.00
2013-4-3,65,46,31,40,32,23,97,66,22,30.14,29.92,8,2,15,0.01
2013-4-4,56,47,41,43,38,35,86,72,51,29.93,29.65,17,6,35,0.05
2013-4-5,51,42,37,40,36,34,94,83,57,29.95,29.84,12,6,23,0.07
2013-4-6,47,40,37,38,35,32,93,83,57,29.95,29.80,16,8,30,0.09
2013-4-7,40,36,30,37,31,24,94,81,64,29.82,29.66,21,9,35,0.15
2013-4-8,47,34,22,28,24,20,94,69,43,30.23,29.82,12,2,26,0.01
2013-4-9,57,38,19,38,27,17,93,69,30,30.35,30.23,8,2,12,0.00
2013-4-10,52,43,34,43,36,30,89,77,57,30.31,30.08,17,6,29,0.00
2013-4-11,55,40,24,30,26,22,93,62,32,30.21,30.08,13,4,21,0.00
2013-4-12,60,40,23,36,26,13,94,65,16,30.11,29.78,17,6,30,0.00
2013-4-13,43,36,30,35,24,17,78,61,40,30.02,29.72,18,7,39,0.00
2013-4-14,41,31,24,33,23,18,93,74,44,30.03,29.87,10,2,14,0.02
2013-4-15,41,32,27,30,27,24,94,84,55,30.11,29.88,18,5,29,0.14
2013-4-16,40,30,23,32,26,22,95,87,58,30.26,30.11,17,4,22,0.02
2013-4-19,40,39,38,36,34,33,85,82,79,30.20,30.16,7,4,15,0.14
2013-4-20,55,43,33,36,33,30,92,71,45,30.25,30.15,10,5,18,0.01
2013-4-21,54,42,30,41,34,28,94,76,47,30.19,30.15,12,5,23,0.00
2013-4-22,52,41,32,36,27,19,93,61,29,30.37,30.17,16,8,26,0.00
2013-4-23,62,41,19,21,15,1,89,45,10,30.36,30.10,19,4,29,0.00
2013-4-24,69,46,27,28,20,14,74,41,12,30.25,30.01,7,2,14,0.00
2013-4-25,71,48,25,38,28,19,83,53,22,30.12,29.99,11,2,21,0.00
2013-4-26,75,52,28,38,31,20,94,54,14,30.21,30.12,8,2,16,0.00
2013-4-27,69,52,32,36,31,23,90,50,19,30.21,30.08,14,5,25,0.00
2013-4-28,61,50,39,37,32,28,69,51,29,30.11,30.03,11,5,22,0.00
2013-4-29,51,45,34,41,34,24,90,69,43,30.04,29.93,12,6,22,0.03
2013-4-30,51,36,21,26,20,15,92,57,24,30.37,29.99,16,5,25,0.01
2013-5-1,62,42,19,27,19,12,92,50,14,30.52,30.37,11,4,27,0.00
2013-5-2,75,51,28,28,20,7,83,40,7,30.51,30.20,8,2,17,0.00
2013-5-3,69,52,29,34,28,25,89,46,20,30.22,30.09,16,5,25,0.00
2013-5-4,65,50,28,37,31,26,93,53,29,30.11,29.86,27,10,40,0.00
2013-5-5,70,56,39,36,33,30,71,44,27,29.88,29.67,19,9,35,0.00
2013-5-6,75,60,39,46,36,32,79,45,24,29.75,29.63,19,6,30,0.00
2013-5-7,76,59,40,47,42,33,95,59,22,29.85,29.72,16,4,22,0.00
2013-5-8,78,56,39,48,42,34,97,67,21,30.03,29.85,22,3,34,0.00
2013-5-9,81,56,38,49,44,37,97,70,24,30.09,29.99,9,2,22,0.00
2013-5-10,79,58,38,51,42,-100,96,65,24,30.16,30.05,7,2,13,0.01
2013-5-11,82,63,45,55,46,-100,94,63,21,30.13,29.93,11,3,22,0.01
2013-5-12,78,62,45,53,48,42,96,65,30,29.98,29.86,13,4,29,0.00
2013-5-13,63,53,40,48,42,36,93,68,46,30.06,29.87,15,6,32,0.00
2013-5-14,67,49,29,41,34,27,95,63,28,30.09,29.98,11,2,16,0.00
2013-5-15,63,47,33,45,38,31,95,73,39,30.02,29.90,7,2,15,0.01
2013-5-16,55,42,37,46,26,-100,92,81,58,29.96,29.83,8,2,13,0.12
2013-5-17,56,45,38,38,32,-100,92,71,45,30.01,29.89,8,3,16,0.02
2013-5-18,55,43,32,41,36,30,95,77,54,30.23,30.01,10,4,19,0.00
2013-5-19,62,46,28,38,34,27,95,67,38,30.32,30.22,12,3,19,0.00
2013-5-20,72,50,28,44,34,27,96,61,21,30.27,29.85,7,2,16,0.00
2013-5-21,50,42,29,41,33,23,92,73,39,29.89,29.63,15,6,31,0.03
2013-5-22,42,34,27,34,29,22,93,82,65,30.01,29.89,11,6,21,0.04
2013-5-23,51,39,26,34,29,24,94,70,41,30.02,29.95,9,4,18,0.01
2013-5-24,54,44,35,34,32,28,87,66,38,29.99,29.95,10,4,18,0.01
2013-5-25,63,44,26,44,33,24,95,70,33,30.02,29.91,9,2,16,0.05
2013-5-26,57,47,40,43,40,36,96,77,47,29.98,29.89,10,3,21,0.23
2013-5-27,53,44,34,48,40,33,95,87,71,29.96,29.75,11,4,22,0.28
2013-5-28,59,49,40,43,39,35,94,71,40,29.88,29.68,10,4,20,0.07
2013-5-29,53,46,40,43,39,35,94,76,56,29.95,29.62,16,6,31,0.14
2013-5-30,57,45,33,35,33,30,90,65,35,30.16,29.95,10,4,17,0.01
2013-5-31,71,49,27,38,29,10,95,58,11,30.26,30.14,7,2,13,0.00
2013-6-1,75,55,33,43,38,31,95,58,26,30.18,29.91,7,2,17,0.00
2013-6-2,69,53,35,46,38,31,97,62,26,29.95,29.83,16,4,28,0.00
2013-6-3,75,55,30,41,35,27,96,55,23,29.99,29.89,10,2,16,0.00
2013-6-4,78,59,34,40,36,31,92,49,18,30.00,29.90,11,3,17,0.00
2013-6-5,86,64,38,49,42,36,92,51,19,29.98,29.83,7,2,14,0.00
2013-6-6,87,65,42,53,47,39,94,58,19,29.89,29.78,6,1,21,0.00
2013-6-7,82,63,45,51,47,43,95,63,30,29.93,29.85,11,3,23,0.00
2013-6-8,87,65,40,49,42,30,95,54,16,29.98,29.86,8,2,17,0.00
2013-6-9,85,63,42,48,39,15,92,51,8,29.88,29.71,9,2,17,0.00
2013-6-10,80,57,33,41,34,17,93,52,12,29.76,29.64,9,2,18,0.00
2013-6-11,59,48,38,39,34,30,84,61,34,30.03,29.76,13,5,21,0.00
2013-6-12,64,46,28,36,32,26,94,63,29,30.07,30.01,9,2,17,0.00
2013-6-13,53,42,29,38,34,27,94,76,51,30.24,30.07,13,4,25,0.01
2013-6-14,73,49,28,38,33,27,96,62,23,30.24,29.98,9,2,14,0.01
2013-6-16,76,62,40,50,44,38,94,54,27,29.98,29.83,11,3,22,0.00
2013-6-17,72,56,37,47,42,36,97,65,33,29.98,29.79,9,3,22,0.00
2013-6-18,61,54,44,44,39,36,84,60,43,29.83,29.75,8,4,20,0.02
2013-6-19,53,46,38,38,36,34,87,68,51,29.95,29.82,13,6,28,0.01
2013-7-10,67,59,48,53,51,45,91,75,60,29.89,29.88,4,2,8,0.00
2013-7-12,75,67,50,42,34,-100,67,34,19,29.93,29.78,9,5,24,0.00
2013-7-13,76,58,35,42,36,29,93,51,24,30.03,29.93,8,2,16,0.00
2013-7-14,89,65,39,47,38,29,80,41,17,30.03,29.82,7,1,16,0.00
2013-7-15,87,64,41,49,42,37,92,51,19,29.86,29.68,14,3,23,0.00
2013-7-16,81,68,60,43,38,32,40,33,26,29.74,29.66,16,10,27,0.00
2013-7-30,79,73,61,48,32,20,63,26,12,30.00,29.98,6,4,13,0.00
2013-8-1,50,48,47,43,42,41,82,79,75,29.97,29.95,4,3,9,0.18
2013-8-2,75,54,35,47,42,34,97,69,31,30.04,29.96,10,2,17,0.02
2013-8-3,83,59,35,50,38,31,96,56,16,30.05,29.89,6,1,12,0.00
2013-8-4,88,67,42,49,43,34,90,49,16,29.94,29.76,9,2,16,0.00
2013-8-5,86,64,43,52,44,38,90,55,19,29.89,29.78,7,1,16,0.00
2013-8-6,91,67,41,52,43,36,92,52,17,29.91,29.77,6,2,17,0.00
2013-8-7,57,52,48,45,43,42,84,73,63,29.88,29.83,8,1,13,0.00
2013-8-10,75,64,51,52,50,46,88,62,37,29.95,29.83,14,3,22,0.05
2013-8-11,77,58,40,50,45,39,96,67,31,30.02,29.88,6,2,15,0.01
2013-8-12,81,60,40,52,46,38,97,66,27,29.96,29.85,8,2,14,0.01
2013-8-13,77,52,39,49,40,-100,95,74,30,29.99,29.93,4,1,11,0.00
2013-8-15,85,69,81,49,25,-100,33,28,24,29.79,29.77,9,6,19,0.00
2013-8-16,81,71,60,57,49,-100,78,52,37,29.91,29.82,8,3,16,0.00
2013-8-17,81,64,47,56,49,-100,95,65,34,29.95,29.83,7,2,18,0.00
2013-8-18,89,63,39,52,45,36,96,61,20,30.02,29.89,5,1,12,0.00
2013-8-19,83,52,41,50,34,-100,92,72,29,29.99,29.91,6,1,9,0.00
2013-8-23,72,62,56,51,50,49,81,65,44,29.76,29.72,7,1,14,0.16
2013-8-24,75,60,44,53,47,-100,96,67,37,29.77,29.65,7,2,14,0.01
2013-8-25,68,56,47,58,50,44,95,80,55,29.86,29.69,7,1,24,0.17
2013-8-26,54,46,43,51,44,42,97,96,89,29.90,29.85,5,1,8,0.18
2013-8-28,79,72,61,52,46,39,69,42,26,29.80,29.73,11,4,23,0.00
2013-8-29,77,62,50,53,49,45,91,65,34,29.95,29.78,14,3,25,0.00
2013-8-30,83,62,45,54,48,44,97,67,26,30.04,29.89,6,1,14,0.00
2013-8-31,88,64,43,53,45,-100,95,59,15,29.94,29.73,10,2,15,0.00
2013-9-1,85,66,43,53,43,25,93,53,12,29.78,29.62,12,3,22,0.00
2013-9-2,80,62,45,52,47,33,95,65,18,29.78,29.66,10,2,23,0.00
2013-9-3,77,57,42,51,45,32,97,71,19,29.89,29.78,10,2,19,0.00
2013-9-4,80,58,37,50,43,29,97,66,16,29.95,29.83,10,2,20,0.00
2013-9-5,70,54,44,50,46,42,95,78,47,29.99,29.77,10,2,18,0.02
2013-9-6,68,55,45,51,46,43,93,74,48,30.08,29.99,10,4,18,0.03
2013-9-7,80,56,40,51,43,-100,97,69,24,30.04,29.89,12,2,19,0.01
2013-9-8,74,58,39,51,45,38,96,68,36,29.99,29.92,19,4,27,0.00
2013-9-9,81,58,35,48,40,31,95,61,17,30.02,29.87,14,2,22,0.00
2013-9-10,83,62,38,47,42,36,92,55,24,29.93,29.79,10,2,18,0.00
2013-9-11,86,66,42,51,44,39,89,50,21,29.93,29.82,8,3,19,0.00
2013-9-12,88,68,46,50,44,40,81,47,19,29.89,29.75,13,3,21,0.00
2013-9-13,83,64,42,51,44,38,87,54,22,29.84,29.70,13,2,21,0.00
2013-9-14,87,65,43,52,44,-100,90,54,23,29.78,29.60,14,2,19,0.00
2013-9-15,83,63,49,50,44,31,81,56,15,29.70,29.49,13,3,22,0.00
2013-9-16,71,54,39,47,43,38,96,71,35,29.81,29.70,9,2,14,0.00
2013-9-17,56,47,42,46,42,39,91,81,65,29.95,29.70,8,2,19,0.04
2013-9-18,48,43,39,40,37,33,92,81,63,30.01,29.94,5,1,12,0.04
2013-9-19,78,49,28,40,32,27,95,63,18,30.02,29.79,8,1,14,0.00
2013-9-20,72,49,29,45,36,27,92,66,24,29.80,29.54,10,3,23,0.05
2013-9-21,58,47,39,44,39,-100,94,78,52,29.74,29.60,8,2,18,0.05
2013-9-22,55,46,40,46,41,38,92,84,64,29.85,29.72,13,6,24,0.06
2013-9-23,60,51,47,45,42,39,82,72,55,29.93,29.84,12,5,25,0.03
2013-9-24,49,44,39,43,40,34,95,84,68,29.90,29.79,7,2,16,0.11
2013-9-25,46,38,30,38,34,28,94,87,70,29.99,29.78,7,2,11,0.04
2013-9-26,53,38,25,36,31,24,96,79,48,30.18,29.98,10,2,18,0.01
2013-9-27,58,40,24,44,33,23,95,78,35,30.21,30.03,10,4,20,0.01
2013-9-28,49,48,47,43,42,42,85,82,79,30.04,29.89,10,7,19,0.01
2013-9-29,48,44,42,46,42,37,96,92,83,29.69,29.52,17,8,30,1.07
2013-9-30,49,43,35,46,36,30,94,76,61,29.97,29.54,15,8,34,0.80
2013-10-1,43,35,28,33,29,26,94,80,63,30.19,30.11,6,1,13,0.07
2013-10-2,48,34,23,34,29,22,96,82,49,30.19,30.07,10,3,19,0.01
2013-10-3,34,28,25,31,27,24,95,93,89,30.31,30.15,2,0,6,0.01
2013-10-4,58,46,28,33,29,26,92,55,30,30.55,30.42,7,2,15,0.01
2013-10-5,71,44,25,37,27,22,93,62,17,30.46,30.24,7,2,14,0.01
2013-10-6,73,37,27,35,28,24,92,77,25,30.25,29.98,6,1,12,0.00
2013-10-7,49,45,37,39,32,25,83,61,46,30.05,29.95,10,4,21,0.00
2013-10-8,46,37,28,38,33,26,94,85,63,30.07,29.92,9,2,17,0.02
2013-10-9,41,36,31,34,32,29,95,86,71,30.01,29.94,12,6,24,0.04
2013-10-10,58,39,27,36,31,25,96,76,42,30.07,29.94,10,1,15,0.01
2013-10-11,52,36,22,37,29,20,95,79,44,30.15,30.07,4,0,10,0.00
2013-10-12,46,36,27,38,31,-100,95,84,63,30.14,30.01,10,2,15,0.02
2013-10-13,50,39,29,36,34,26,91,80,54,30.30,30.13,9,4,21,0.01
2013-10-14,53,35,20,34,27,18,94,76,43,30.44,30.30,12,2,21,0.01
2013-10-15,60,37,21,32,26,19,94,69,24,30.42,30.22,5,1,11,0.01
2013-10-16,68,41,24,32,25,20,86,61,21,30.23,30.10,6,1,12,0.00
2013-10-17,61,37,22,36,27,20,92,72,31,30.27,30.19,12,1,18,0.00
2013-10-18,68,41,23,38,30,21,93,70,30,30.29,30.17,5,1,9,0.00
2013-10-19,76,44,26,38,29,-100,93,65,18,30.22,30.09,6,1,9,0.01
2013-10-20,70,43,23,35,29,21,92,65,21,30.21,30.11,10,1,14,0.01
2013-10-21,69,44,25,37,31,23,91,67,30,30.22,30.09,7,1,15,0.00
2013-10-22,72,46,26,39,33,24,93,67,27,30.19,30.04,3,0,8,0.00
2013-10-23,72,44,25,40,33,23,93,69,27,30.12,30.01,6,1,12,0.00
2013-10-24,72,47,27,41,34,25,93,67,20,30.12,30.02,5,1,10,0.00
2013-10-25,69,48,26,40,32,24,92,60,21,30.27,30.18,5,1,11,0.00
2013-10-26,71,42,24,38,28,-100,91,67,23,30.32,30.11,5,1,10,0.00
2013-10-27,50,34,23,39,30,21,95,87,43,30.12,29.72,12,3,22,0.23
2013-10-28,37,32,29,36,27,-100,96,85,68,29.93,29.73,20,13,34,0.19
2013-10-29,50,32,20,28,22,17,91,68,41,30.09,29.93,11,1,19,0.00
2013-10-30,55,37,24,35,29,22,100,75,42,30.21,30.09,6,2,13,0.01
2013-10-31,53,43,35,46,38,31,94,83,76,30.24,30.16,7,2,14,0.01
2013-11-1,54,40,32,44,37,30,97,90,68,30.26,30.00,7,1,13,0.00
2013-11-2,43,36,29,41,32,-100,96,86,59,30.06,29.79,18,5,32,0.16
2013-11-3,35,32,28,30,28,24,94,86,69,30.15,30.02,13,4,19,0.04
2013-11-4,42,35,30,32,30,27,89,81,65,30.18,30.10,11,3,20,0.01
2013-11-5,46,40,34,44,38,31,96,93,83,30.25,30.15,8,3,15,0.24
2013-11-6,53,46,42,47,44,41,97,92,77,30.29,30.10,6,2,13,0.06
2013-11-7,50,41,34,44,37,29,95,85,70,30.10,29.84,18,6,34,0.14
2013-11-8,43,35,28,33,30,26,93,80,56,30.18,30.09,7,1,16,0.02
2013-11-9,51,35,24,38,28,-100,95,81,53,30.16,30.09,8,2,16,0.00
2013-11-10,59,40,28,41,33,27,96,80,43,30.16,30.09,8,1,12,0.00
2013-11-11,42,33,24,37,31,23,97,94,80,30.27,30.16,9,3,16,0.01
2013-11-12,54,41,31,46,38,30,97,88,67,30.38,30.25,7,1,14,0.03
2013-11-13,56,37,26,38,30,24,97,81,34,30.45,30.30,5,1,9,0.01
2013-11-14,46,30,22,30,25,20,93,80,44,30.29,30.08,8,1,21,0.01
2013-11-15,39,30,17,28,24,15,94,79,61,30.10,29.64,17,4,30,0.00
2013-11-16,39,35,33,32,29,-100,91,81,69,29.86,29.54,14,8,30,0.01
2013-11-17,43,36,31,34,30,25,88,79,65,30.06,29.86,9,5,19,0.01
2013-11-18,46,36,26,37,31,24,94,82,59,30.05,29.85,10,4,21,0.12
2013-11-19,43,40,37,42,38,35,96,94,92,29.87,29.76,10,5,22,0.53
2013-11-20,38,28,18,37,22,2,96,77,50,30.36,29.83,19,10,28,0.06
2013-11-21,32,21,13,7,4,0,74,49,30,30.73,30.36,15,8,26,0.01
2013-11-22,38,19,2,13,8,-1,87,66,33,30.81,30.67,13,3,18,0.00
2013-11-23,45,22,6,21,12,-100,88,69,35,30.68,30.42,5,0,9,0.00
2013-11-24,53,27,10,22,15,7,90,67,21,30.43,30.33,7,2,11,0.00
2013-11-25,58,31,15,23,18,12,88,65,20,30.48,30.37,4,1,9,0.00
2013-11-26,51,31,20,25,20,16,85,67,28,30.39,30.20,5,1,8,0.00
2013-11-27,53,31,23,29,23,19,87,74,36,30.21,30.05,5,1,10,0.00
2013-11-28,58,31,18,29,23,16,100,75,31,30.28,30.12,5,1,10,0.00
2013-11-29,55,34,16,31,24,14,92,70,35,30.37,30.27,5,1,9,0.00
2013-11-30,52,40,28,38,32,-100,95,77,53,30.37,30.27,9,2,16,0.00
2013-12-1,49,45,37,42,39,33,92,80,72,30.28,29.86,19,9,43,0.04
2013-12-2,45,34,23,38,29,18,94,84,70,29.93,29.74,17,7,33,0.51
2013-12-3,24,18,12,22,14,6,93,84,71,30.25,29.93,15,5,28,0.03
2013-12-4,19,10,0,7,3,-4,87,72,56,30.40,30.24,16,5,22,0.00
2013-12-5,23,7,-7,11,1,-11,86,75,53,30.42,30.29,5,1,12,0.00
2013-12-6,10,8,6,6,5,2,89,87,85,30.29,30.02,18,8,32,0.00
2013-12-7,6,1,-18,2,-4,-100,92,83,79,30.58,30.09,21,11,32,0.00
2013-12-8,21,-6,-24,13,-10,-29,92,80,72,30.89,30.58,5,1,11,0.00
2013-12-9,30,10,-10,22,4,-14,84,79,69,30.89,30.64,7,3,16,0.01
2013-12-10,36,20,10,26,14,7,92,81,63,30.65,30.45,4,0,9,0.01
2013-12-11,40,22,7,29,17,4,91,82,61,30.54,30.40,6,2,13,0.01
2013-12-12,41,27,11,30,20,9,91,79,55,30.41,30.21,9,4,18,0.00
2013-12-13,45,33,22,34,29,20,94,84,64,30.50,30.29,8,2,16,0.00
2013-12-14,48,32,20,32,24,-100,95,78,51,30.58,30.48,7,2,15,0.00
2013-12-15,53,37,28,39,29,24,92,75,43,30.52,30.39,7,2,16,0.01
2013-12-16,56,31,20,28,23,18,93,76,31,30.50,30.40,5,1,9,0.01
2013-12-17,57,32,19,27,22,17,90,69,30,30.41,30.18,6,1,10,0.00
2013-12-18,39,32,27,32,25,20,94,78,67,30.18,29.92,8,2,15,0.00
2013-12-19,29,22,8,26,15,4,90,74,51,30.26,29.98,14,4,20,0.00
2013-12-20,40,28,10,38,23,7,95,84,72,30.26,29.97,10,3,17,0.10
2013-12-21,47,39,32,36,32,-100,91,78,58,30.16,29.95,12,4,20,0.01
2013-12-22,48,40,32,38,34,29,88,77,58,30.35,30.14,9,3,21,0.00
2013-12-23,47,39,32,41,32,28,88,78,64,30.43,30.29,11,5,24,0.00
2013-12-24,47,32,22,31,24,20,94,78,37,30.56,30.43,5,1,11,0.00
2013-12-25,47,29,20,28,23,18,92,78,47,30.60,30.47,6,2,12,0.00
2013-12-26,58,34,21,29,23,18,90,70,30,30.50,30.34,7,1,11,0.00
2013-12-27,47,31,21,27,23,19,92,72,44,30.35,30.22,5,1,12,0.00
2013-12-28,48,27,12,27,16,-100,91,70,28,30.54,30.35,6,1,9,0.00
2013-12-29,43,26,15,21,16,11,92,68,37,30.53,30.42,4,1,9,0.00
2013-12-30,44,33,25,27,21,18,78,63,42,30.42,30.27,7,2,11,0.00
2013-12-31,51,39,27,28,22,18,79,53,30,30.32,30.23,9,2,18,0.00
2014-1-1,51,32,20,31,25,18,92,76,46,30.41,30.32,4,1,8,0.00
2014-1-2,53,36,22,32,26,20,93,71,42,30.37,30.09,8,2,13,0.00